Capt. Joe — WDF7584 — position and weather

sailwx.info

Track history (hours):
 
Tides and Currents Weather Stations Pressure Air Temp Water Temp Dewpoint Dewpoint Depression Visibility Wind Speed Wind Dir Waves Ship Positions

Capt. Joe

Owner: Princess Elena, Inc., Gloucester, MA. More information available from US FCC via Universal Licensing System and Coast Guard Vessel Documentation Center.

Last reported at 2018-Jun-21 22:00 UTC. Time now 2018-Jun-21 22:05 UTC.
Position N 42°37' W 070°39'.

Length 25 m; draft 14 m.

Type: Fishing. MMSI: 367485980.

Date/timePositionNaut miles runAvg speedWind from/ knotsBaromVisibWave heightAir tempDewpointWater temp
2018-Jun-21 22:00N 42°37' W 070°39'0 0.0
2018-Jun-21 21:30N 42°37' W 070°39'0 0.0
2018-Jun-21 21:00N 42°37' W 070°39'0 0.0
2018-Jun-21 20:30N 42°37' W 070°39'0 0.0
2018-Jun-21 20:00N 42°37' W 070°39'0 0.0
2018-Jun-21 19:29N 42°37' W 070°39'0 0.0
2018-Jun-21 19:01N 42°37' W 070°39'0 0.9
2018-Jun-21 18:30N 42°37' W 070°40'0 0.1
2018-Jun-21 18:00N 42°37' W 070°40'2 3.1
2018-Jun-21 17:30N 42°35' W 070°40'4 7.7
2018-Jun-21 17:00N 42°33' W 070°36'4 8.0
2018-Jun-21 16:30N 42°33' W 070°30'4 7.9
2018-Jun-21 16:00N 42°32' W 070°25'4 7.6
2018-Jun-21 15:30N 42°31' W 070°20'4 7.4
2018-Jun-21 15:00N 42°31' W 070°15'4 7.5
2018-Jun-21 14:30N 42°30' W 070°10'22 7.5
2018-Jun-21 11:38N 42°25' W 069°41'2 8.0
2018-Jun-21 11:19N 42°25' W 069°38'2 7.9
2018-Jun-21 11:00N 42°24' W 069°35'4 7.8
2018-Jun-21 10:30N 42°24' W 069°30'4 8.0
2018-Jun-21 10:00N 42°23' W 069°24'38 1.0
2018-Jun-19 21:29N 42°30' W 070°14'4 8.1
2018-Jun-19 21:00N 42°31' W 070°20'4 7.7
2018-Jun-19 20:30N 42°32' W 070°25'4 7.8
2018-Jun-19 20:00N 42°32' W 070°30'4 7.6
2018-Jun-19 19:30N 42°33' W 070°35'4 7.4
2018-Jun-19 19:00N 42°34' W 070°40'3 5.2
2018-Jun-19 18:30N 42°37' W 070°39'0 0.0
2018-Jun-19 18:00N 42°37' W 070°39'0 0.0
2018-Jun-19 17:30N 42°37' W 070°39'0 0.0
2018-Jun-19 17:00N 42°37' W 070°39'0 0.0
2018-Jun-19 16:30N 42°37' W 070°39'0 0.0
2018-Jun-19 16:00N 42°37' W 070°39'0 0.0
2018-Jun-19 15:30N 42°37' W 070°39'0 0.0
2018-Jun-19 15:00N 42°37' W 070°39'0 0.9
2018-Jun-19 14:30N 42°37' W 070°40'0 0.0
2018-Jun-19 13:59N 42°37' W 070°40'0 0.0
2018-Jun-19 13:30N 42°37' W 070°40'0 0.0
2018-Jun-19 12:59N 42°37' W 070°40'0 0.0
2018-Jun-19 12:30N 42°37' W 070°40'0 0.0
2018-Jun-19 12:00N 42°37' W 070°40'0 0.0
2018-Jun-19 11:30N 42°37' W 070°40'0 0.0
2018-Jun-19 11:00N 42°37' W 070°40'0 0.0
2018-Jun-19 10:30N 42°37' W 070°40'0 0.9
2018-Jun-19 10:00N 42°37' W 070°39'0 0.0
2018-Jun-19 09:30N 42°37' W 070°39'0 0.0
2018-Jun-19 09:00N 42°37' W 070°39'0 0.0
2018-Jun-19 08:30N 42°37' W 070°39'0 0.0
2018-Jun-19 08:00N 42°37' W 070°39'0 0.0
2018-Jun-19 07:30N 42°37' W 070°39'0 0.0
2018-Jun-19 07:00N 42°37' W 070°39'0 0.0
2018-Jun-19 06:30N 42°37' W 070°39'0 0.0
2018-Jun-19 06:00N 42°37' W 070°39'0 0.0
2018-Jun-19 05:30N 42°37' W 070°39'0 0.0
2018-Jun-19 05:00N 42°37' W 070°39'0 0.0
2018-Jun-19 04:26N 42°37' W 070°39'  
2018-Jun-16 01:54N 42°19' W 069°59'1 2.5
2018-Jun-16 01:29N 42°20' W 069°58'2 2.4
2018-Jun-16 00:49N 42°21' W 069°58'1 2.6
2018-Jun-16 00:30N 42°22' W 069°57'1 2.6
2018-Jun-16 00:01N 42°23' W 069°56'1 1.6
2018-Jun-15 23:25N 42°24' W 069°56'5 2.6
2018-Jun-15 21:32N 42°19' W 069°58'2 0.1
2018-Jun-14 11:02N 42°21' W 069°58'0 2.9
2018-Jun-14 10:56N 42°21' W 069°58'2 2.8
2018-Jun-14 10:18N 42°19' W 069°58'1 2.7
2018-Jun-14 09:57N 42°18' W 069°59'1 1.1
2018-Jun-14 09:22N 42°18' W 069°58'19 1.2
2018-Jun-13 18:01N 42°31' W 070°17'0 8.9
2018-Jun-13 18:00N 42°31' W 070°17'4 8.1
2018-Jun-13 17:30N 42°32' W 070°22'4 7.8
2018-Jun-13 17:00N 42°32' W 070°28'4 7.8
2018-Jun-13 16:30N 42°33' W 070°33'4 7.7
2018-Jun-13 16:00N 42°34' W 070°38'3 5.8
2018-Jun-13 15:30N 42°36' W 070°40'1 1.0
2018-Jun-13 15:00N 42°37' W 070°39'0 0.0
2018-Jun-13 14:30N 42°37' W 070°39'0 0.0
2018-Jun-13 14:00N 42°37' W 070°39'0 0.0
2018-Jun-13 13:30N 42°37' W 070°39'0 0.0
2018-Jun-13 13:00N 42°37' W 070°39'0 0.0
2018-Jun-13 12:30N 42°37' W 070°39'0 0.0
2018-Jun-13 12:00N 42°37' W 070°39'0 0.0
2018-Jun-13 11:30N 42°37' W 070°39'0 0.0
2018-Jun-13 11:01N 42°37' W 070°39'0 0.0
2018-Jun-13 10:30N 42°37' W 070°39'0 0.0
2018-Jun-13 10:01N 42°37' W 070°39'0 0.0
2018-Jun-13 09:30N 42°37' W 070°39'0 0.0
2018-Jun-13 09:00N 42°37' W 070°39'0 0.0
2018-Jun-13 08:30N 42°37' W 070°39'0 0.0
2018-Jun-13 08:00N 42°37' W 070°39'0 0.0
2018-Jun-13 07:31N 42°37' W 070°39'0 0.0
2018-Jun-13 07:00N 42°37' W 070°39'0 0.0
2018-Jun-13 06:30N 42°37' W 070°39'0 0.0
2018-Jun-13 06:00N 42°37' W 070°39'0 0.0
2018-Jun-13 05:30N 42°37' W 070°39'0 0.0
2018-Jun-13 05:00N 42°37' W 070°39'0 0.0
2018-Jun-13 04:31N 42°37' W 070°39'0 0.0
2018-Jun-13 04:01N 42°37' W 070°39'0 0.0
2018-Jun-13 03:30N 42°37' W 070°39'0 0.0
2018-Jun-13 03:00N 42°37' W 070°39'0 0.0
2018-Jun-13 02:31N 42°37' W 070°39'0 0.0
2018-Jun-13 02:00N 42°37' W 070°39'0 0.0
2018-Jun-13 01:31N 42°37' W 070°39'0 0.0
2018-Jun-13 01:00N 42°37' W 070°39'0 0.0
2018-Jun-13 00:30N 42°37' W 070°39'0 0.0
2018-Jun-13 00:00N 42°37' W 070°39'0 0.0
2018-Jun-12 23:30N 42°37' W 070°39'0 0.0
2018-Jun-12 23:00N 42°37' W 070°39'0 0.0
2018-Jun-12 22:30N 42°37' W 070°39'0 0.0
2018-Jun-12 22:00N 42°37' W 070°39'0 0.0
2018-Jun-12 21:30N 42°37' W 070°39'0 0.0
2018-Jun-12 21:00N 42°37' W 070°39'0 0.0
2018-Jun-12 20:30N 42°37' W 070°39'0 0.0
2018-Jun-12 20:00N 42°37' W 070°39'0 0.0
2018-Jun-12 19:31N 42°37' W 070°39'0 0.0
2018-Jun-12 19:01N 42°37' W 070°39'0 0.0
2018-Jun-12 18:31N 42°37' W 070°39'0 0.0
2018-Jun-12 18:00N 42°37' W 070°39'0 0.0
2018-Jun-12 17:30N 42°37' W 070°39'0 0.0
2018-Jun-12 17:01N 42°37' W 070°39'0 0.0
2018-Jun-12 16:31N 42°37' W 070°39'0 0.0
2018-Jun-12 15:58N 42°37' W 070°39'0 0.0
2018-Jun-12 15:30N 42°37' W 070°39'0 0.0
2018-Jun-12 15:00N 42°37' W 070°39'0 0.0
2018-Jun-12 14:30N 42°37' W 070°39'0 0.0
2018-Jun-12 14:00N 42°37' W 070°39'0 0.0
2018-Jun-12 13:31N 42°37' W 070°39'0 0.0
2018-Jun-12 13:00N 42°37' W 070°39'0 0.0
2018-Jun-12 12:31N 42°37' W 070°39'0 0.0
2018-Jun-12 12:00N 42°37' W 070°39'0 0.0
2018-Jun-12 11:30N 42°37' W 070°39'0 0.0
2018-Jun-12 11:00N 42°37' W 070°39'0 0.0
2018-Jun-12 10:31N 42°37' W 070°39'0 0.0
2018-Jun-12 10:00N 42°37' W 070°39'0 0.0
2018-Jun-12 09:30N 42°37' W 070°39'0 0.0
2018-Jun-12 09:00N 42°37' W 070°39'0 0.0
2018-Jun-12 08:30N 42°37' W 070°39'0 0.0
2018-Jun-12 08:00N 42°37' W 070°39'0 0.0
2018-Jun-12 07:30N 42°37' W 070°39'0 0.0
2018-Jun-12 07:01N 42°37' W 070°39'0 0.0
2018-Jun-12 06:30N 42°37' W 070°39'0 0.0
2018-Jun-12 06:00N 42°37' W 070°39'0 0.0
2018-Jun-12 05:30N 42°37' W 070°39'0 0.0
2018-Jun-12 05:01N 42°37' W 070°39'0 0.0
2018-Jun-12 04:31N 42°37' W 070°39'0 0.0
2018-Jun-12 04:01N 42°37' W 070°39'0 0.0
2018-Jun-12 03:30N 42°37' W 070°39'0 0.0
2018-Jun-12 03:00N 42°37' W 070°39'0 0.0
2018-Jun-12 02:30N 42°37' W 070°39'0 0.0
2018-Jun-12 02:00N 42°37' W 070°39'0 0.0
2018-Jun-12 01:31N 42°37' W 070°39'0 0.0
2018-Jun-12 01:00N 42°37' W 070°39'0 0.0
2018-Jun-12 00:30N 42°37' W 070°39'0 0.0
2018-Jun-12 00:00N 42°37' W 070°39'0 0.0
2018-Jun-11 23:30N 42°37' W 070°39'0 0.0
2018-Jun-11 23:01N 42°37' W 070°39'0 0.0
2018-Jun-11 22:30N 42°37' W 070°39'  
Track history (hours):
 
Tides and Currents Weather Stations Pressure Air Temp Water Temp Dewpoint Dewpoint Depression Visibility Wind Speed Wind Dir Waves Ship Positions

Capt. Joe

Owner: Princess Elena, Inc., Gloucester, MA. More information available from US FCC via Universal Licensing System and Coast Guard Vessel Documentation Center.

Last reported at 2018-Jun-21 22:00 UTC. Time now 2018-Jun-21 22:05 UTC.
Position N 42°37' W 070°39'.

Length 25 m; draft 14 m.

Type: Fishing. MMSI: 367485980.

Date/timePositionNaut miles runAvg speedWind from/ knotsBaromVisibWave heightAir tempDewpointWater temp
2018-Jun-21 22:00N 42°37' W 070°39'0 0.0
2018-Jun-21 21:30N 42°37' W 070°39'0 0.0
2018-Jun-21 21:00N 42°37' W 070°39'0 0.0
2018-Jun-21 20:30N 42°37' W 070°39'0 0.0
2018-Jun-21 20:00N 42°37' W 070°39'0 0.0
2018-Jun-21 19:29N 42°37' W 070°39'0 0.0
2018-Jun-21 19:01N 42°37' W 070°39'0 0.9
2018-Jun-21 18:30N 42°37' W 070°40'0 0.1
2018-Jun-21 18:00N 42°37' W 070°40'2 3.1
2018-Jun-21 17:30N 42°35' W 070°40'4 7.7
2018-Jun-21 17:00N 42°33' W 070°36'4 8.0
2018-Jun-21 16:30N 42°33' W 070°30'4 7.9
2018-Jun-21 16:00N 42°32' W 070°25'4 7.6
2018-Jun-21 15:30N 42°31' W 070°20'4 7.4
2018-Jun-21 15:00N 42°31' W 070°15'4 7.5
2018-Jun-21 14:30N 42°30' W 070°10'22 7.5
2018-Jun-21 11:38N 42°25' W 069°41'2 8.0
2018-Jun-21 11:19N 42°25' W 069°38'2 7.9
2018-Jun-21 11:00N 42°24' W 069°35'4 7.8
2018-Jun-21 10:30N 42°24' W 069°30'4 8.0
2018-Jun-21 10:00N 42°23' W 069°24'38 1.0
2018-Jun-19 21:29N 42°30' W 070°14'4 8.1
2018-Jun-19 21:00N 42°31' W 070°20'4 7.7
2018-Jun-19 20:30N 42°32' W 070°25'4 7.8
2018-Jun-19 20:00N 42°32' W 070°30'4 7.6
2018-Jun-19 19:30N 42°33' W 070°35'4 7.4
2018-Jun-19 19:00N 42°34' W 070°40'3 5.2
2018-Jun-19 18:30N 42°37' W 070°39'0 0.0
2018-Jun-19 18:00N 42°37' W 070°39'0 0.0
2018-Jun-19 17:30N 42°37' W 070°39'0 0.0
2018-Jun-19 17:00N 42°37' W 070°39'0 0.0
2018-Jun-19 16:30N 42°37' W 070°39'0 0.0
2018-Jun-19 16:00N 42°37' W 070°39'0 0.0
2018-Jun-19 15:30N 42°37' W 070°39'0 0.0
2018-Jun-19 15:00N 42°37' W 070°39'0 0.9
2018-Jun-19 14:30N 42°37' W 070°40'0 0.0
2018-Jun-19 13:59N 42°37' W 070°40'0 0.0
2018-Jun-19 13:30N 42°37' W 070°40'0 0.0
2018-Jun-19 12:59N 42°37' W 070°40'0 0.0
2018-Jun-19 12:30N 42°37' W 070°40'0 0.0
2018-Jun-19 12:00N 42°37' W 070°40'0 0.0
2018-Jun-19 11:30N 42°37' W 070°40'0 0.0
2018-Jun-19 11:00N 42°37' W 070°40'0 0.0
2018-Jun-19 10:30N 42°37' W 070°40'0 0.9
2018-Jun-19 10:00N 42°37' W 070°39'0 0.0
2018-Jun-19 09:30N 42°37' W 070°39'0 0.0
2018-Jun-19 09:00N 42°37' W 070°39'0 0.0
2018-Jun-19 08:30N 42°37' W 070°39'0 0.0
2018-Jun-19 08:00N 42°37' W 070°39'0 0.0
2018-Jun-19 07:30N 42°37' W 070°39'0 0.0
2018-Jun-19 07:00N 42°37' W 070°39'0 0.0
2018-Jun-19 06:30N 42°37' W 070°39'0 0.0
2018-Jun-19 06:00N 42°37' W 070°39'0 0.0
2018-Jun-19 05:30N 42°37' W 070°39'0 0.0
2018-Jun-19 05:00N 42°37' W 070°39'0 0.0
2018-Jun-19 04:26N 42°37' W 070°39'  
2018-Jun-16 01:54N 42°19' W 069°59'1 2.5
2018-Jun-16 01:29N 42°20' W 069°58'2 2.4
2018-Jun-16 00:49N 42°21' W 069°58'1 2.6
2018-Jun-16 00:30N 42°22' W 069°57'1 2.6
2018-Jun-16 00:01N 42°23' W 069°56'1 1.6
2018-Jun-15 23:25N 42°24' W 069°56'5 2.6
2018-Jun-15 21:32N 42°19' W 069°58'2 0.1
2018-Jun-14 11:02N 42°21' W 069°58'0 2.9
2018-Jun-14 10:56N 42°21' W 069°58'2 2.8
2018-Jun-14 10:18N 42°19' W 069°58'1 2.7
2018-Jun-14 09:57N 42°18' W 069°59'1 1.1
2018-Jun-14 09:22N 42°18' W 069°58'19 1.2
2018-Jun-13 18:01N 42°31' W 070°17'0 8.9
2018-Jun-13 18:00N 42°31' W 070°17'4 8.1
2018-Jun-13 17:30N 42°32' W 070°22'4 7.8
2018-Jun-13 17:00N 42°32' W 070°28'4 7.8
2018-Jun-13 16:30N 42°33' W 070°33'4 7.7
2018-Jun-13 16:00N 42°34' W 070°38'3 5.8
2018-Jun-13 15:30N 42°36' W 070°40'1 1.0
2018-Jun-13 15:00N 42°37' W 070°39'0 0.0
2018-Jun-13 14:30N 42°37' W 070°39'0 0.0
2018-Jun-13 14:00N 42°37' W 070°39'0 0.0
2018-Jun-13 13:30N 42°37' W 070°39'0 0.0
2018-Jun-13 13:00N 42°37' W 070°39'0 0.0
2018-Jun-13 12:30N 42°37' W 070°39'0 0.0
2018-Jun-13 12:00N 42°37' W 070°39'0 0.0
2018-Jun-13 11:30N 42°37' W 070°39'0 0.0
2018-Jun-13 11:01N 42°37' W 070°39'0 0.0
2018-Jun-13 10:30N 42°37' W 070°39'0 0.0
2018-Jun-13 10:01N 42°37' W 070°39'0 0.0
2018-Jun-13 09:30N 42°37' W 070°39'0 0.0
2018-Jun-13 09:00N 42°37' W 070°39'0 0.0
2018-Jun-13 08:30N 42°37' W 070°39'0 0.0
2018-Jun-13 08:00N 42°37' W 070°39'0 0.0
2018-Jun-13 07:31N 42°37' W 070°39'0 0.0
2018-Jun-13 07:00N 42°37' W 070°39'0 0.0
2018-Jun-13 06:30N 42°37' W 070°39'0 0.0
2018-Jun-13 06:00N 42°37' W 070°39'0 0.0
2018-Jun-13 05:30N 42°37' W 070°39'0 0.0
2018-Jun-13 05:00N 42°37' W 070°39'0 0.0
2018-Jun-13 04:31N 42°37' W 070°39'0 0.0
2018-Jun-13 04:01N 42°37' W 070°39'0 0.0
2018-Jun-13 03:30N 42°37' W 070°39'0 0.0
2018-Jun-13 03:00N 42°37' W 070°39'0 0.0
2018-Jun-13 02:31N 42°37' W 070°39'0 0.0
2018-Jun-13 02:00N 42°37' W 070°39'0 0.0
2018-Jun-13 01:31N 42°37' W 070°39'0 0.0
2018-Jun-13 01:00N 42°37' W 070°39'0 0.0
2018-Jun-13 00:30N 42°37' W 070°39'0 0.0
2018-Jun-13 00:00N 42°37' W 070°39'0 0.0
2018-Jun-12 23:30N 42°37' W 070°39'0 0.0
2018-Jun-12 23:00N 42°37' W 070°39'0 0.0
2018-Jun-12 22:30N 42°37' W 070°39'0 0.0
2018-Jun-12 22:00N 42°37' W 070°39'0 0.0
2018-Jun-12 21:30N 42°37' W 070°39'0 0.0
2018-Jun-12 21:00N 42°37' W 070°39'0 0.0
2018-Jun-12 20:30N 42°37' W 070°39'0 0.0
2018-Jun-12 20:00N 42°37' W 070°39'0 0.0
2018-Jun-12 19:31N 42°37' W 070°39'0 0.0
2018-Jun-12 19:01N 42°37' W 070°39'0 0.0
2018-Jun-12 18:31N 42°37' W 070°39'0 0.0
2018-Jun-12 18:00N 42°37' W 070°39'0 0.0
2018-Jun-12 17:30N 42°37' W 070°39'0 0.0
2018-Jun-12 17:01N 42°37' W 070°39'0 0.0
2018-Jun-12 16:31N 42°37' W 070°39'0 0.0
2018-Jun-12 15:58N 42°37' W 070°39'0 0.0
2018-Jun-12 15:30N 42°37' W 070°39'0 0.0
2018-Jun-12 15:00N 42°37' W 070°39'0 0.0
2018-Jun-12 14:30N 42°37' W 070°39'0 0.0
2018-Jun-12 14:00N 42°37' W 070°39'0 0.0
2018-Jun-12 13:31N 42°37' W 070°39'0 0.0
2018-Jun-12 13:00N 42°37' W 070°39'0 0.0
2018-Jun-12 12:31N 42°37' W 070°39'0 0.0
2018-Jun-12 12:00N 42°37' W 070°39'0 0.0
2018-Jun-12 11:30N 42°37' W 070°39'0 0.0
2018-Jun-12 11:00N 42°37' W 070°39'0 0.0
2018-Jun-12 10:31N 42°37' W 070°39'0 0.0
2018-Jun-12 10:00N 42°37' W 070°39'0 0.0
2018-Jun-12 09:30N 42°37' W 070°39'0 0.0
2018-Jun-12 09:00N 42°37' W 070°39'0 0.0
2018-Jun-12 08:30N 42°37' W 070°39'0 0.0
2018-Jun-12 08:00N 42°37' W 070°39'0 0.0
2018-Jun-12 07:30N 42°37' W 070°39'0 0.0
2018-Jun-12 07:01N 42°37' W 070°39'0 0.0
2018-Jun-12 06:30N 42°37' W 070°39'0 0.0
2018-Jun-12 06:00N 42°37' W 070°39'0 0.0
2018-Jun-12 05:30N 42°37' W 070°39'0 0.0
2018-Jun-12 05:01N 42°37' W 070°39'0 0.0
2018-Jun-12 04:31N 42°37' W 070°39'0 0.0
2018-Jun-12 04:01N 42°37' W 070°39'0 0.0
2018-Jun-12 03:30N 42°37' W 070°39'0 0.0
2018-Jun-12 03:00N 42°37' W 070°39'0 0.0
2018-Jun-12 02:30N 42°37' W 070°39'0 0.0
2018-Jun-12 02:00N 42°37' W 070°39'0 0.0
2018-Jun-12 01:31N 42°37' W 070°39'0 0.0
2018-Jun-12 01:00N 42°37' W 070°39'0 0.0
2018-Jun-12 00:30N 42°37' W 070°39'0 0.0
2018-Jun-12 00:00N 42°37' W 070°39'0 0.0
2018-Jun-11 23:30N 42°37' W 070°39'0 0.0
2018-Jun-11 23:01N 42°37' W 070°39'0 0.0
2018-Jun-11 22:30N 42°37' W 070°39'  

Dump ship's entire track history